Duke, OK (73532)

1:15 PM CST on February 14, 2016 (GMT -0600)
NE of Olustee | | Change Station
CLOSE
Current Station
Personal Weather Station
Location: Altus, OK
Elevation: 1368 ft
Nearby Weather Stations

Elev 1368 ft 34.56 °N, 99.38 °W | Updated 1 second ago

Clear
Clear
51.6 °F
Feels Like 51.6 °F
N
12.1
Wind Variable Wind from NNE
Gusts 15.0 mph

Today
High -- | Low -- °F
--% Chance of Precip.
Yesterday
High -- | Low -- °F
Precip. -- in
Pressure 29.97 in
Visibility 10.0 miles
Clouds Clear
Dew Point 35 °F
Humidity 53%
Rainfall 0.00 in
Snow Depth Not available.
7:25 AM 6:20 PM
Waxing Crescent, 44% visible
METAR KAXS 141855Z AUTO 01011KT 10SM CLR 11/02 A2997 RMK AO2 T01140018
Pressure 29.97 in
Visibility 10.0 miles
Clouds Clear
Dew Point 35 °F
Humidity 53%
Rainfall 0.00 in
Snow Depth Not available.
7:25 AM 6:20 PM
Waxing Crescent, 44% visible
METAR KAXS 141855Z AUTO 01011KT 10SM CLR 11/02 A2997 RMK AO2 T01140018

10-Day Weather Forecast

Almanac

Astronomy

Feb. 14, 2016 Rise Set
Actual Time
Civil Twilight
Nautical Twilight
Astronomical Twilight
Moon
Length of Visible Light
Length of Day
Tomorrow will be .
, % of the Moon is Illuminated

Today's Extremes

State Highs State Lows

Community

WunderPhotos

Upload Photos

1,892,875 photos uploaded!

WunderBlog® & News

Nearby

Air Quality

  Air Quality AQ Index Pollutant
Not available.

Snow Depth

Station Depth Elevation

Earthquake Activity

City Distance Mag. Time & Date
Minimum magnitude displayed is 2.5.

Coastal Water Temperatures

Place Temperature

Stations

Nearby Weather Stations

Station Location Temp. Windchill Dew Point Humidity Wind Precip. Elev Updated Type
                   

Watches & Warnings

There are currently no watches in effect.